Terminal Aerodrome Forecast
Issued by NWS Cleveland, OH

Home | Current Version | Previous Version | Text Only | Print | Product List | Glossary Off
Versions: 1 2 3 4 5 6 7 8 9 10 11 12 13 14 15 16 17 18 19

000
FTUS41 KCLE 211133
TAFTOL
TAF
KTOL 211133Z 2112/2212 25004KT 1/4SM FG VV002
      TEMPO 2112/2113 1SM BR OVC004
     FM211300 29005KT 1SM BR OVC005
      TEMPO 2114/2115 4SM BR OVC010
     FM211500 30010KT P6SM BKN015
     FM211700 30012KT P6SM SCT025
     FM220200 34012G20KT P6SM SCT035=

USA.gov is the U.S. government's official web portal to all federal, state and local government web resources and services.